sensor_id;sensor_type;location;lat;lon;timestamp;P1;durP1;ratioP1;P2;durP2;ratioP2
49193;SDS011;35029;50.804;12.866;2022-08-19T00:01:13;37.63;;;34.03;;
49193;SDS011;35029;50.804;12.866;2022-08-19T00:03:38;33.67;;;30.33;;
49193;SDS011;35029;50.804;12.866;2022-08-19T00:06:04;33.58;;;30.30;;
49193;SDS011;35029;50.804;12.866;2022-08-19T00:08:30;31.00;;;28.13;;
49193;SDS011;35029;50.804;12.866;2022-08-19T00:10:56;32.05;;;28.95;;
49193;SDS011;35029;50.804;12.866;2022-08-19T00:13:22;31.52;;;28.63;;
49193;SDS011;35029;50.804;12.866;2022-08-19T00:15:48;30.67;;;27.88;;
49193;SDS011;35029;50.804;12.866;2022-08-19T00:18:13;32.65;;;29.63;;
49193;SDS011;35029;50.804;12.866;2022-08-19T00:20:39;36.97;;;25.67;;
49193;SDS011;35029;50.804;12.866;2022-08-19T00:23:05;27.65;;;24.98;;
49193;SDS011;35029;50.804;12.866;2022-08-19T00:25:32;28.92;;;26.00;;
49193;SDS011;35029;50.804;12.866;2022-08-19T00:27:58;29.52;;;26.60;;
49193;SDS011;35029;50.804;12.866;2022-08-19T00:30:24;32.20;;;28.98;;
49193;SDS011;35029;50.804;12.866;2022-08-19T00:32:53;28.58;;;25.92;;
49193;SDS011;35029;50.804;12.866;2022-08-19T00:35:22;27.13;;;24.63;;
49193;SDS011;35029;50.804;12.866;2022-08-19T00:37:48;30.50;;;27.65;;
49193;SDS011;35029;50.804;12.866;2022-08-19T00:40:16;31.08;;;28.17;;
49193;SDS011;35029;50.804;12.866;2022-08-19T00:42:43;28.05;;;25.45;;
49193;SDS011;35029;50.804;12.866;2022-08-19T00:45:19;26.08;;;23.70;;
49193;SDS011;35029;50.804;12.866;2022-08-19T00:47:46;28.73;;;26.02;;
49193;SDS011;35029;50.804;12.866;2022-08-19T00:50:13;29.48;;;26.73;;
49193;SDS011;35029;50.804;12.866;2022-08-19T00:52:42;28.83;;;26.15;;
49193;SDS011;35029;50.804;12.866;2022-08-19T00:55:15;27.63;;;25.05;;
49193;SDS011;35029;50.804;12.866;2022-08-19T00:57:50;29.92;;;27.02;;
49193;SDS011;35029;50.804;12.866;2022-08-19T01:00:19;27.63;;;25.13;;
49193;SDS011;35029;50.804;12.866;2022-08-19T01:02:46;29.25;;;26.42;;
49193;SDS011;35029;50.804;12.866;2022-08-19T01:05:13;28.17;;;25.30;;
49193;SDS011;35029;50.804;12.866;2022-08-19T01:07:43;28.80;;;26.08;;
49193;SDS011;35029;50.804;12.866;2022-08-19T01:10:11;26.45;;;24.02;;
49193;SDS011;35029;50.804;12.866;2022-08-19T01:12:39;30.25;;;27.30;;
49193;SDS011;35029;50.804;12.866;2022-08-19T01:15:07;29.88;;;26.95;;
49193;SDS011;35029;50.804;12.866;2022-08-19T01:17:36;27.95;;;25.38;;
49193;SDS011;35029;50.804;12.866;2022-08-19T01:20:05;28.27;;;25.60;;
49193;SDS011;35029;50.804;12.866;2022-08-19T01:22:35;29.42;;;26.63;;
49193;SDS011;35029;50.804;12.866;2022-08-19T01:25:07;28.25;;;25.65;;
49193;SDS011;35029;50.804;12.866;2022-08-19T01:27:39;29.58;;;26.90;;
49193;SDS011;35029;50.804;12.866;2022-08-19T01:30:07;25.90;;;23.45;;
49193;SDS011;35029;50.804;12.866;2022-08-19T01:32:33;25.88;;;23.48;;
49193;SDS011;35029;50.804;12.866;2022-08-19T01:35:00;25.00;;;22.60;;
49193;SDS011;35029;50.804;12.866;2022-08-19T01:37:28;26.92;;;24.40;;
49193;SDS011;35029;50.804;12.866;2022-08-19T01:39:55;26.42;;;24.13;;
49193;SDS011;35029;50.804;12.866;2022-08-19T01:42:21;26.63;;;24.10;;
49193;SDS011;35029;50.804;12.866;2022-08-19T01:44:48;26.20;;;23.73;;
49193;SDS011;35029;50.804;12.866;2022-08-19T01:47:14;24.23;;;21.95;;
49193;SDS011;35029;50.804;12.866;2022-08-19T01:49:40;26.48;;;24.08;;
49193;SDS011;35029;50.804;12.866;2022-08-19T01:52:05;24.38;;;22.08;;
49193;SDS011;35029;50.804;12.866;2022-08-19T01:54:31;26.92;;;24.20;;
49193;SDS011;35029;50.804;12.866;2022-08-19T01:56:59;27.30;;;24.70;;
49193;SDS011;35029;50.804;12.866;2022-08-19T01:59:30;24.63;;;22.33;;
49193;SDS011;35029;50.804;12.866;2022-08-19T02:01:57;26.38;;;23.88;;
49193;SDS011;35029;50.804;12.866;2022-08-19T02:04:23;21.73;;;19.73;;
49193;SDS011;35029;50.804;12.866;2022-08-19T02:06:50;22.95;;;20.75;;
49193;SDS011;35029;50.804;12.866;2022-08-19T02:09:15;26.92;;;24.27;;
49193;SDS011;35029;50.804;12.866;2022-08-19T02:11:41;21.02;;;18.92;;
49193;SDS011;35029;50.804;12.866;2022-08-19T02:14:08;22.35;;;20.30;;
49193;SDS011;35029;50.804;12.866;2022-08-19T02:16:34;25.52;;;23.05;;
49193;SDS011;35029;50.804;12.866;2022-08-19T02:19:00;21.55;;;19.48;;
49193;SDS011;35029;50.804;12.866;2022-08-19T02:21:26;22.08;;;19.85;;
49193;SDS011;35029;50.804;12.866;2022-08-19T02:23:53;20.05;;;18.25;;
49193;SDS011;35029;50.804;12.866;2022-08-19T02:26:20;24.00;;;21.55;;
49193;SDS011;35029;50.804;12.866;2022-08-19T02:28:46;19.10;;;17.30;;
49193;SDS011;35029;50.804;12.866;2022-08-19T02:31:14;22.58;;;20.52;;
49193;SDS011;35029;50.804;12.866;2022-08-19T02:33:42;25.00;;;22.70;;
49193;SDS011;35029;50.804;12.866;2022-08-19T02:36:10;22.50;;;20.50;;
49193;SDS011;35029;50.804;12.866;2022-08-19T02:38:37;22.70;;;20.52;;
49193;SDS011;35029;50.804;12.866;2022-08-19T02:41:05;24.38;;;22.20;;
49193;SDS011;35029;50.804;12.866;2022-08-19T02:43:35;23.52;;;21.30;;
49193;SDS011;35029;50.804;12.866;2022-08-19T02:46:02;24.30;;;22.00;;
49193;SDS011;35029;50.804;12.866;2022-08-19T02:48:36;21.73;;;19.73;;
49193;SDS011;35029;50.804;12.866;2022-08-19T02:51:02;25.20;;;22.90;;
49193;SDS011;35029;50.804;12.866;2022-08-19T02:53:28;24.00;;;21.73;;
49193;SDS011;35029;50.804;12.866;2022-08-19T02:55:54;24.90;;;22.70;;
49193;SDS011;35029;50.804;12.866;2022-08-19T02:58:20;23.00;;;20.90;;
49193;SDS011;35029;50.804;12.866;2022-08-19T03:00:49;25.70;;;23.17;;
49193;SDS011;35029;50.804;12.866;2022-08-19T03:03:20;24.02;;;21.83;;
49193;SDS011;35029;50.804;12.866;2022-08-19T03:05:46;23.65;;;21.45;;
49193;SDS011;35029;50.804;12.866;2022-08-19T03:08:12;23.20;;;20.90;;
49193;SDS011;35029;50.804;12.866;2022-08-19T03:10:41;26.60;;;23.85;;
49193;SDS011;35029;50.804;12.866;2022-08-19T03:13:10;28.40;;;25.48;;
49193;SDS011;35029;50.804;12.866;2022-08-19T03:15:41;24.73;;;22.35;;
49193;SDS011;35029;50.804;12.866;2022-08-19T03:18:07;25.65;;;23.05;;
49193;SDS011;35029;50.804;12.866;2022-08-19T03:20:33;31.77;;;28.85;;
49193;SDS011;35029;50.804;12.866;2022-08-19T03:22:59;29.95;;;26.95;;
49193;SDS011;35029;50.804;12.866;2022-08-19T03:25:24;28.77;;;25.95;;
49193;SDS011;35029;50.804;12.866;2022-08-19T03:27:50;28.27;;;25.58;;
49193;SDS011;35029;50.804;12.866;2022-08-19T03:30:15;31.65;;;28.33;;
49193;SDS011;35029;50.804;12.866;2022-08-19T03:32:41;32.20;;;29.05;;
49193;SDS011;35029;50.804;12.866;2022-08-19T03:35:07;38.63;;;34.63;;
49193;SDS011;35029;50.804;12.866;2022-08-19T03:37:33;31.60;;;28.25;;
49193;SDS011;35029;50.804;12.866;2022-08-19T03:39:59;31.35;;;28.15;;
49193;SDS011;35029;50.804;12.866;2022-08-19T03:42:28;32.25;;;29.05;;
49193;SDS011;35029;50.804;12.866;2022-08-19T03:44:54;34.13;;;30.63;;
49193;SDS011;35029;50.804;12.866;2022-08-19T03:47:19;35.35;;;31.75;;
49193;SDS011;35029;50.804;12.866;2022-08-19T03:49:45;36.88;;;33.03;;
49193;SDS011;35029;50.804;12.866;2022-08-19T03:52:11;35.28;;;31.52;;
49193;SDS011;35029;50.804;12.866;2022-08-19T03:54:37;33.50;;;30.20;;
49193;SDS011;35029;50.804;12.866;2022-08-19T03:57:03;38.35;;;34.28;;
49193;SDS011;35029;50.804;12.866;2022-08-19T03:59:30;39.67;;;35.40;;
49193;SDS011;35029;50.804;12.866;2022-08-19T04:02:00;45.47;;;40.63;;
49193;SDS011;35029;50.804;12.866;2022-08-19T04:04:27;44.13;;;38.17;;
49193;SDS011;35029;50.804;12.866;2022-08-19T04:06:53;51.40;;;42.53;;
49193;SDS011;35029;50.804;12.866;2022-08-19T04:09:19;44.28;;;39.45;;
49193;SDS011;35029;50.804;12.866;2022-08-19T04:11:46;42.03;;;37.67;;
49193;SDS011;35029;50.804;12.866;2022-08-19T04:14:16;38.40;;;34.35;;
49193;SDS011;35029;50.804;12.866;2022-08-19T04:16:44;48.25;;;42.83;;
49193;SDS011;35029;50.804;12.866;2022-08-19T04:19:11;43.42;;;38.58;;
49193;SDS011;35029;50.804;12.866;2022-08-19T04:21:38;45.13;;;39.97;;
49193;SDS011;35029;50.804;12.866;2022-08-19T04:24:04;41.22;;;35.83;;
49193;SDS011;35029;50.804;12.866;2022-08-19T04:26:33;44.45;;;38.47;;
49193;SDS011;35029;50.804;12.866;2022-08-19T04:29:01;48.65;;;39.00;;
49193;SDS011;35029;50.804;12.866;2022-08-19T04:31:30;45.38;;;39.67;;
49193;SDS011;35029;50.804;12.866;2022-08-19T04:33:59;43.08;;;37.53;;
49193;SDS011;35029;50.804;12.866;2022-08-19T04:36:26;40.65;;;35.83;;
49193;SDS011;35029;50.804;12.866;2022-08-19T04:38:55;52.03;;;39.92;;
49193;SDS011;35029;50.804;12.866;2022-08-19T04:41:23;47.60;;;39.75;;
49193;SDS011;35029;50.804;12.866;2022-08-19T04:44:07;47.20;;;39.08;;
49193;SDS011;35029;50.804;12.866;2022-08-19T04:46:34;47.10;;;39.40;;
49193;SDS011;35029;50.804;12.866;2022-08-19T04:49:00;42.45;;;37.08;;
49193;SDS011;35029;50.804;12.866;2022-08-19T04:51:27;54.63;;;42.53;;
49193;SDS011;35029;50.804;12.866;2022-08-19T04:53:55;47.70;;;37.22;;
49193;SDS011;35029;50.804;12.866;2022-08-19T04:56:21;52.40;;;42.17;;
49193;SDS011;35029;50.804;12.866;2022-08-19T04:58:49;40.88;;;36.05;;
49193;SDS011;35029;50.804;12.866;2022-08-19T05:01:21;48.17;;;37.03;;
49193;SDS011;35029;50.804;12.866;2022-08-19T05:03:48;49.00;;;38.95;;
49193;SDS011;35029;50.804;12.866;2022-08-19T05:06:15;48.42;;;38.30;;
49193;SDS011;35029;50.804;12.866;2022-08-19T05:08:42;46.83;;;37.85;;
49193;SDS011;35029;50.804;12.866;2022-08-19T05:11:10;40.17;;;34.30;;
49193;SDS011;35029;50.804;12.866;2022-08-19T05:13:38;40.13;;;34.00;;
49193;SDS011;35029;50.804;12.866;2022-08-19T05:16:05;41.40;;;34.38;;
49193;SDS011;35029;50.804;12.866;2022-08-19T05:18:31;34.83;;;30.30;;
49193;SDS011;35029;50.804;12.866;2022-08-19T05:21:16;32.35;;;28.85;;
49193;SDS011;35029;50.804;12.866;2022-08-19T05:24:02;25.60;;;22.90;;
49193;SDS011;35029;50.804;12.866;2022-08-19T05:26:28;28.75;;;25.67;;
49193;SDS011;35029;50.804;12.866;2022-08-19T05:28:54;28.67;;;25.20;;
49193;SDS011;35029;50.804;12.866;2022-08-19T05:31:20;29.33;;;26.17;;
49193;SDS011;35029;50.804;12.866;2022-08-19T05:33:47;25.95;;;23.35;;
49193;SDS011;35029;50.804;12.866;2022-08-19T05:36:12;27.38;;;24.42;;
49193;SDS011;35029;50.804;12.866;2022-08-19T05:38:39;27.52;;;24.35;;
49193;SDS011;35029;50.804;12.866;2022-08-19T05:41:12;27.70;;;24.65;;
49193;SDS011;35029;50.804;12.866;2022-08-19T05:43:39;25.40;;;22.00;;
49193;SDS011;35029;50.804;12.866;2022-08-19T05:46:05;24.58;;;22.02;;
49193;SDS011;35029;50.804;12.866;2022-08-19T05:48:33;24.55;;;22.00;;
49193;SDS011;35029;50.804;12.866;2022-08-19T05:51:06;31.20;;;25.95;;
49193;SDS011;35029;50.804;12.866;2022-08-19T05:53:34;33.53;;;29.08;;
49193;SDS011;35029;50.804;12.866;2022-08-19T05:56:07;33.47;;;29.52;;
49193;SDS011;35029;50.804;12.866;2022-08-19T05:58:36;36.20;;;30.83;;
49193;SDS011;35029;50.804;12.866;2022-08-19T06:01:02;37.40;;;32.08;;
49193;SDS011;35029;50.804;12.866;2022-08-19T06:03:32;31.20;;;27.42;;
49193;SDS011;35029;50.804;12.866;2022-08-19T06:05:58;36.03;;;30.63;;
49193;SDS011;35029;50.804;12.866;2022-08-19T06:08:25;38.50;;;34.00;;
49193;SDS011;35029;50.804;12.866;2022-08-19T06:10:52;35.75;;;31.90;;
49193;SDS011;35029;50.804;12.866;2022-08-19T06:13:18;32.25;;;28.77;;
49193;SDS011;35029;50.804;12.866;2022-08-19T06:15:44;36.28;;;31.52;;
49193;SDS011;35029;50.804;12.866;2022-08-19T06:18:12;35.70;;;31.58;;
49193;SDS011;35029;50.804;12.866;2022-08-19T06:20:39;35.85;;;30.70;;
49193;SDS011;35029;50.804;12.866;2022-08-19T06:23:05;28.80;;;25.83;;
49193;SDS011;35029;50.804;12.866;2022-08-19T06:25:30;35.25;;;31.42;;
49193;SDS011;35029;50.804;12.866;2022-08-19T06:27:56;32.92;;;29.02;;
49193;SDS011;35029;50.804;12.866;2022-08-19T06:30:22;36.72;;;28.23;;
49193;SDS011;35029;50.804;12.866;2022-08-19T06:32:48;36.00;;;29.98;;
49193;SDS011;35029;50.804;12.866;2022-08-19T06:35:13;35.75;;;31.42;;
49193;SDS011;35029;50.804;12.866;2022-08-19T06:37:40;31.65;;;27.55;;
49193;SDS011;35029;50.804;12.866;2022-08-19T06:40:06;39.30;;;31.02;;
49193;SDS011;35029;50.804;12.866;2022-08-19T06:42:36;38.95;;;30.35;;
49193;SDS011;35029;50.804;12.866;2022-08-19T06:45:03;41.60;;;33.50;;
49193;SDS011;35029;50.804;12.866;2022-08-19T06:47:30;43.35;;;33.55;;
49193;SDS011;35029;50.804;12.866;2022-08-19T06:49:58;35.05;;;28.50;;
49193;SDS011;35029;50.804;12.866;2022-08-19T06:52:32;40.47;;;32.13;;
49193;SDS011;35029;50.804;12.866;2022-08-19T06:57:26;45.50;;;33.20;;
49193;SDS011;35029;50.804;12.866;2022-08-19T06:59:52;39.25;;;32.47;;
49193;SDS011;35029;50.804;12.866;2022-08-19T07:02:18;36.17;;;29.15;;
49193;SDS011;35029;50.804;12.866;2022-08-19T07:04:45;37.35;;;29.58;;
49193;SDS011;35029;50.804;12.866;2022-08-19T07:07:11;40.63;;;30.80;;
49193;SDS011;35029;50.804;12.866;2022-08-19T07:09:39;44.10;;;33.33;;
49193;SDS011;35029;50.804;12.866;2022-08-19T07:12:08;47.42;;;34.67;;
49193;SDS011;35029;50.804;12.866;2022-08-19T07:14:36;39.35;;;30.70;;
49193;SDS011;35029;50.804;12.866;2022-08-19T07:17:03;37.40;;;30.02;;
49193;SDS011;35029;50.804;12.866;2022-08-19T07:19:31;39.42;;;31.02;;
49193;SDS011;35029;50.804;12.866;2022-08-19T07:21:57;39.90;;;30.00;;
49193;SDS011;35029;50.804;12.866;2022-08-19T07:24:27;40.00;;;32.42;;
49193;SDS011;35029;50.804;12.866;2022-08-19T07:26:54;42.42;;;33.55;;
49193;SDS011;35029;50.804;12.866;2022-08-19T07:29:22;38.42;;;31.67;;
49193;SDS011;35029;50.804;12.866;2022-08-19T07:31:51;38.75;;;29.48;;
49193;SDS011;35029;50.804;12.866;2022-08-19T07:34:21;38.28;;;30.38;;
49193;SDS011;35029;50.804;12.866;2022-08-19T07:36:48;32.58;;;27.17;;
49193;SDS011;35029;50.804;12.866;2022-08-19T07:39:26;29.67;;;26.48;;
49193;SDS011;35029;50.804;12.866;2022-08-19T07:41:55;27.45;;;24.42;;
49193;SDS011;35029;50.804;12.866;2022-08-19T07:44:23;25.38;;;22.73;;
49193;SDS011;35029;50.804;12.866;2022-08-19T07:46:51;30.25;;;26.67;;
49193;SDS011;35029;50.804;12.866;2022-08-19T07:49:20;32.72;;;27.10;;
49193;SDS011;35029;50.804;12.866;2022-08-19T07:51:46;28.42;;;25.42;;
49193;SDS011;35029;50.804;12.866;2022-08-19T07:54:18;30.17;;;27.15;;
49193;SDS011;35029;50.804;12.866;2022-08-19T07:56:45;34.72;;;29.92;;
49193;SDS011;35029;50.804;12.866;2022-08-19T07:59:11;37.05;;;31.27;;
49193;SDS011;35029;50.804;12.866;2022-08-19T08:01:37;33.95;;;30.42;;
49193;SDS011;35029;50.804;12.866;2022-08-19T08:04:05;33.45;;;29.77;;
49193;SDS011;35029;50.804;12.866;2022-08-19T08:06:51;34.28;;;29.67;;
49193;SDS011;35029;50.804;12.866;2022-08-19T08:09:37;34.20;;;30.60;;
49193;SDS011;35029;50.804;12.866;2022-08-19T08:14:42;35.10;;;31.40;;
49193;SDS011;35029;50.804;12.866;2022-08-19T08:17:13;31.80;;;28.45;;
49193;SDS011;35029;50.804;12.866;2022-08-19T08:19:41;29.63;;;26.50;;
49193;SDS011;35029;50.804;12.866;2022-08-19T08:22:07;32.25;;;28.80;;
49193;SDS011;35029;50.804;12.866;2022-08-19T08:24:54;29.50;;;26.40;;
49193;SDS011;35029;50.804;12.866;2022-08-19T08:27:20;31.73;;;28.42;;
49193;SDS011;35029;50.804;12.866;2022-08-19T08:29:46;37.58;;;32.88;;
49193;SDS011;35029;50.804;12.866;2022-08-19T08:32:14;35.95;;;32.03;;
49193;SDS011;35029;50.804;12.866;2022-08-19T08:34:39;32.63;;;29.33;;
49193;SDS011;35029;50.804;12.866;2022-08-19T08:37:05;36.05;;;32.30;;
49193;SDS011;35029;50.804;12.866;2022-08-19T08:39:30;37.83;;;31.70;;
49193;SDS011;35029;50.804;12.866;2022-08-19T08:42:07;37.00;;;33.20;;
49193;SDS011;35029;50.804;12.866;2022-08-19T08:47:15;36.38;;;32.50;;
49193;SDS011;35029;50.804;12.866;2022-08-19T08:49:50;41.72;;;37.38;;
49193;SDS011;35029;50.804;12.866;2022-08-19T08:52:24;40.83;;;36.58;;
49193;SDS011;35029;50.804;12.866;2022-08-19T08:54:52;40.17;;;36.08;;
49193;SDS011;35029;50.804;12.866;2022-08-19T08:57:28;46.50;;;39.20;;
49193;SDS011;35029;50.804;12.866;2022-08-19T08:59:54;37.90;;;34.03;;
49193;SDS011;35029;50.804;12.866;2022-08-19T09:02:24;39.88;;;35.78;;
49193;SDS011;35029;50.804;12.866;2022-08-19T09:04:50;45.13;;;40.15;;
49193;SDS011;35029;50.804;12.866;2022-08-19T09:10:02;47.88;;;42.60;;
49193;SDS011;35029;50.804;12.866;2022-08-19T09:15:08;46.33;;;41.30;;
49193;SDS011;35029;50.804;12.866;2022-08-19T09:17:37;53.33;;;47.58;;
49193;SDS011;35029;50.804;12.866;2022-08-19T09:20:05;55.40;;;49.33;;
49193;SDS011;35029;50.804;12.866;2022-08-19T09:22:41;50.58;;;45.28;;
49193;SDS011;35029;50.804;12.866;2022-08-19T09:25:11;57.43;;;51.20;;
49193;SDS011;35029;50.804;12.866;2022-08-19T09:27:45;56.05;;;50.05;;
49193;SDS011;35029;50.804;12.866;2022-08-19T09:30:14;53.08;;;47.50;;
49193;SDS011;35029;50.804;12.866;2022-08-19T09:32:48;58.45;;;52.10;;
49193;SDS011;35029;50.804;12.866;2022-08-19T09:35:17;55.45;;;49.33;;
49193;SDS011;35029;50.804;12.866;2022-08-19T09:37:44;54.00;;;48.15;;
49193;SDS011;35029;50.804;12.866;2022-08-19T09:40:10;59.22;;;51.45;;
49193;SDS011;35029;50.804;12.866;2022-08-19T09:42:37;56.83;;;50.63;;
49193;SDS011;35029;50.804;12.866;2022-08-19T09:45:02;54.58;;;47.95;;
49193;SDS011;35029;50.804;12.866;2022-08-19T09:47:29;56.50;;;49.60;;
49193;SDS011;35029;50.804;12.866;2022-08-19T09:49:55;55.08;;;47.40;;
49193;SDS011;35029;50.804;12.866;2022-08-19T09:52:20;50.75;;;45.58;;
49193;SDS011;35029;50.804;12.866;2022-08-19T09:54:46;52.88;;;46.53;;
49193;SDS011;35029;50.804;12.866;2022-08-19T09:57:11;47.63;;;42.67;;
49193;SDS011;35029;50.804;12.866;2022-08-19T09:59:38;42.65;;;38.33;;
49193;SDS011;35029;50.804;12.866;2022-08-19T10:02:04;46.38;;;41.47;;
49193;SDS011;35029;50.804;12.866;2022-08-19T10:04:31;46.85;;;41.83;;
49193;SDS011;35029;50.804;12.866;2022-08-19T10:07:15;46.45;;;41.45;;
49193;SDS011;35029;50.804;12.866;2022-08-19T10:09:41;48.13;;;42.17;;
49193;SDS011;35029;50.804;12.866;2022-08-19T10:12:07;50.08;;;44.70;;
49193;SDS011;35029;50.804;12.866;2022-08-19T10:14:34;56.65;;;47.28;;
49193;SDS011;35029;50.804;12.866;2022-08-19T10:17:00;55.72;;;47.75;;
49193;SDS011;35029;50.804;12.866;2022-08-19T10:19:27;45.13;;;38.65;;
49193;SDS011;35029;50.804;12.866;2022-08-19T10:21:55;61.47;;;51.88;;
49193;SDS011;35029;50.804;12.866;2022-08-19T10:24:22;60.85;;;52.00;;
49193;SDS011;35029;50.804;12.866;2022-08-19T10:26:49;56.90;;;49.85;;
49193;SDS011;35029;50.804;12.866;2022-08-19T10:29:15;62.33;;;51.58;;
49193;SDS011;35029;50.804;12.866;2022-08-19T10:31:41;66.07;;;54.47;;
49193;SDS011;35029;50.804;12.866;2022-08-19T10:34:07;63.15;;;52.08;;
49193;SDS011;35029;50.804;12.866;2022-08-19T10:36:34;71.53;;;56.58;;
49193;SDS011;35029;50.804;12.866;2022-08-19T10:39:03;63.80;;;50.38;;
49193;SDS011;35029;50.804;12.866;2022-08-19T10:41:32;60.08;;;51.33;;
49193;SDS011;35029;50.804;12.866;2022-08-19T10:44:06;67.50;;;54.05;;
49193;SDS011;35029;50.804;12.866;2022-08-19T10:46:37;63.88;;;53.20;;
49193;SDS011;35029;50.804;12.866;2022-08-19T10:49:07;60.33;;;51.63;;
49193;SDS011;35029;50.804;12.866;2022-08-19T10:51:35;56.00;;;47.63;;
49193;SDS011;35029;50.804;12.866;2022-08-19T10:54:20;55.05;;;48.80;;
49193;SDS011;35029;50.804;12.866;2022-08-19T10:56:46;52.22;;;46.63;;
49193;SDS011;35029;50.804;12.866;2022-08-19T10:59:27;60.78;;;48.47;;
49193;SDS011;35029;50.804;12.866;2022-08-19T11:01:58;62.42;;;51.72;;
49193;SDS011;35029;50.804;12.866;2022-08-19T11:04:26;59.65;;;50.88;;
49193;SDS011;35029;50.804;12.866;2022-08-19T11:06:51;62.60;;;53.55;;
49193;SDS011;35029;50.804;12.866;2022-08-19T11:09:18;65.57;;;54.97;;
49193;SDS011;35029;50.804;12.866;2022-08-19T11:11:46;62.47;;;55.55;;
49193;SDS011;35029;50.804;12.866;2022-08-19T11:14:14;61.28;;;52.30;;
49193;SDS011;35029;50.804;12.866;2022-08-19T11:16:43;61.10;;;51.97;;
49193;SDS011;35029;50.804;12.866;2022-08-19T11:19:09;60.88;;;50.78;;
49193;SDS011;35029;50.804;12.866;2022-08-19T11:21:39;57.58;;;49.67;;
49193;SDS011;35029;50.804;12.866;2022-08-19T11:24:09;62.88;;;51.15;;
49193;SDS011;35029;50.804;12.866;2022-08-19T11:26:36;65.75;;;53.03;;
49193;SDS011;35029;50.804;12.866;2022-08-19T11:29:03;54.28;;;45.70;;
49193;SDS011;35029;50.804;12.866;2022-08-19T11:31:32;71.53;;;57.42;;
49193;SDS011;35029;50.804;12.866;2022-08-19T11:34:02;74.22;;;58.25;;
49193;SDS011;35029;50.804;12.866;2022-08-19T11:36:29;69.68;;;54.35;;
49193;SDS011;35029;50.804;12.866;2022-08-19T11:38:57;66.95;;;53.38;;
49193;SDS011;35029;50.804;12.866;2022-08-19T11:41:23;66.82;;;51.67;;
49193;SDS011;35029;50.804;12.866;2022-08-19T11:43:50;65.75;;;52.95;;
49193;SDS011;35029;50.804;12.866;2022-08-19T11:46:18;63.58;;;50.38;;
49193;SDS011;35029;50.804;12.866;2022-08-19T11:48:44;52.00;;;44.60;;
49193;SDS011;35029;50.804;12.866;2022-08-19T11:51:11;50.88;;;43.50;;
49193;SDS011;35029;50.804;12.866;2022-08-19T11:53:39;55.72;;;43.72;;
49193;SDS011;35029;50.804;12.866;2022-08-19T11:56:05;48.25;;;42.88;;
49193;SDS011;35029;50.804;12.866;2022-08-19T11:58:32;51.38;;;43.90;;
49193;SDS011;35029;50.804;12.866;2022-08-19T12:00:59;55.85;;;45.72;;
49193;SDS011;35029;50.804;12.866;2022-08-19T12:03:25;54.97;;;48.53;;
49193;SDS011;35029;50.804;12.866;2022-08-19T12:05:52;66.00;;;51.65;;
49193;SDS011;35029;50.804;12.866;2022-08-19T12:08:18;60.13;;;49.17;;
49193;SDS011;35029;50.804;12.866;2022-08-19T12:10:44;59.28;;;48.85;;
49193;SDS011;35029;50.804;12.866;2022-08-19T12:13:11;67.10;;;53.45;;
49193;SDS011;35029;50.804;12.866;2022-08-19T12:15:41;63.22;;;49.35;;
49193;SDS011;35029;50.804;12.866;2022-08-19T12:18:07;68.57;;;56.13;;
49193;SDS011;35029;50.804;12.866;2022-08-19T12:20:37;67.80;;;56.63;;
49193;SDS011;35029;50.804;12.866;2022-08-19T12:23:05;65.30;;;51.92;;
49193;SDS011;35029;50.804;12.866;2022-08-19T12:25:32;74.63;;;57.53;;
49193;SDS011;35029;50.804;12.866;2022-08-19T12:27:58;81.32;;;60.28;;
49193;SDS011;35029;50.804;12.866;2022-08-19T12:30:23;77.18;;;60.22;;
49193;SDS011;35029;50.804;12.866;2022-08-19T12:32:50;77.93;;;58.30;;
49193;SDS011;35029;50.804;12.866;2022-08-19T12:35:16;81.45;;;63.95;;
49193;SDS011;35029;50.804;12.866;2022-08-19T12:37:45;79.97;;;60.30;;
49193;SDS011;35029;50.804;12.866;2022-08-19T12:40:11;73.75;;;59.30;;
49193;SDS011;35029;50.804;12.866;2022-08-19T12:42:38;72.90;;;57.58;;
49193;SDS011;35029;50.804;12.866;2022-08-19T12:45:07;75.97;;;59.85;;
49193;SDS011;35029;50.804;12.866;2022-08-19T12:47:38;81.82;;;63.80;;
49193;SDS011;35029;50.804;12.866;2022-08-19T12:50:05;82.07;;;64.07;;
49193;SDS011;35029;50.804;12.866;2022-08-19T12:52:37;81.37;;;60.33;;
49193;SDS011;35029;50.804;12.866;2022-08-19T12:55:04;74.55;;;58.55;;
49193;SDS011;35029;50.804;12.866;2022-08-19T12:57:31;77.93;;;60.92;;
49193;SDS011;35029;50.804;12.866;2022-08-19T13:02:39;75.53;;;58.97;;
49193;SDS011;35029;50.804;12.866;2022-08-19T13:05:07;73.65;;;58.55;;
49193;SDS011;35029;50.804;12.866;2022-08-19T13:07:37;76.50;;;59.15;;
49193;SDS011;35029;50.804;12.866;2022-08-19T13:10:04;70.25;;;57.13;;
49193;SDS011;35029;50.804;12.866;2022-08-19T13:12:31;75.93;;;60.55;;
49193;SDS011;35029;50.804;12.866;2022-08-19T13:14:56;67.10;;;55.15;;
49193;SDS011;35029;50.804;12.866;2022-08-19T13:17:22;70.38;;;57.65;;
49193;SDS011;35029;50.804;12.866;2022-08-19T13:19:48;71.60;;;56.92;;
49193;SDS011;35029;50.804;12.866;2022-08-19T13:22:14;67.00;;;56.67;;
49193;SDS011;35029;50.804;12.866;2022-08-19T13:24:39;71.95;;;57.00;;
49193;SDS011;35029;50.804;12.866;2022-08-19T13:27:05;71.13;;;56.80;;
49193;SDS011;35029;50.804;12.866;2022-08-19T13:29:32;70.47;;;54.78;;
49193;SDS011;35029;50.804;12.866;2022-08-19T13:32:16;70.30;;;56.97;;
49193;SDS011;35029;50.804;12.866;2022-08-19T13:35:01;61.72;;;53.25;;
49193;SDS011;35029;50.804;12.866;2022-08-19T13:37:26;71.43;;;57.88;;
49193;SDS011;35029;50.804;12.866;2022-08-19T13:40:08;70.60;;;57.17;;
49193;SDS011;35029;50.804;12.866;2022-08-19T13:42:42;66.95;;;54.78;;
49193;SDS011;35029;50.804;12.866;2022-08-19T13:45:12;81.13;;;61.95;;
49193;SDS011;35029;50.804;12.866;2022-08-19T13:47:40;73.40;;;57.47;;
49193;SDS011;35029;50.804;12.866;2022-08-19T13:50:10;75.35;;;57.28;;
49193;SDS011;35029;50.804;12.866;2022-08-19T13:52:39;70.50;;;56.05;;
49193;SDS011;35029;50.804;12.866;2022-08-19T13:55:06;66.43;;;53.00;;
49193;SDS011;35029;50.804;12.866;2022-08-19T13:57:33;70.20;;;53.88;;
49193;SDS011;35029;50.804;12.866;2022-08-19T13:59:59;69.70;;;56.08;;
49193;SDS011;35029;50.804;12.866;2022-08-19T14:02:25;71.65;;;53.83;;
49193;SDS011;35029;50.804;12.866;2022-08-19T14:04:51;65.50;;;53.75;;
49193;SDS011;35029;50.804;12.866;2022-08-19T14:07:19;65.90;;;51.60;;
49193;SDS011;35029;50.804;12.866;2022-08-19T14:09:46;61.58;;;49.80;;
49193;SDS011;35029;50.804;12.866;2022-08-19T14:12:12;63.95;;;51.65;;
49193;SDS011;35029;50.804;12.866;2022-08-19T14:14:37;62.78;;;50.92;;
49193;SDS011;35029;50.804;12.866;2022-08-19T14:17:07;61.35;;;49.80;;
49193;SDS011;35029;50.804;12.866;2022-08-19T14:19:34;67.13;;;53.83;;
49193;SDS011;35029;50.804;12.866;2022-08-19T14:22:00;64.35;;;51.63;;
49193;SDS011;35029;50.804;12.866;2022-08-19T14:24:26;66.88;;;51.92;;
49193;SDS011;35029;50.804;12.866;2022-08-19T14:26:52;66.57;;;53.03;;
49193;SDS011;35029;50.804;12.866;2022-08-19T14:29:17;61.47;;;50.70;;